sensor_id;sensor_type;location;lat;lon;timestamp;temperature;humidity
44136;DHT22;29798;51.064;13.734;2022-09-13T00:01:30;13.30;99.90
44136;DHT22;29798;51.064;13.734;2022-09-13T00:03:56;13.30;99.90
44136;DHT22;29798;51.064;13.734;2022-09-13T00:06:22;13.20;99.90
44136;DHT22;29798;51.064;13.734;2022-09-13T00:08:48;13.20;99.90
44136;DHT22;29798;51.064;13.734;2022-09-13T00:11:18;13.20;99.90
44136;DHT22;29798;51.064;13.734;2022-09-13T00:13:46;13.20;99.90
44136;DHT22;29798;51.064;13.734;2022-09-13T00:16:12;13.20;99.90
44136;DHT22;29798;51.064;13.734;2022-09-13T00:18:39;13.10;99.90
44136;DHT22;29798;51.064;13.734;2022-09-13T00:21:09;13.10;99.90
44136;DHT22;29798;51.064;13.734;2022-09-13T00:23:36;13.10;99.90
44136;DHT22;29798;51.064;13.734;2022-09-13T00:26:03;13.10;99.90
44136;DHT22;29798;51.064;13.734;2022-09-13T00:28:30;13.20;99.90
44136;DHT22;29798;51.064;13.734;2022-09-13T00:31:00;13.20;99.90
44136;DHT22;29798;51.064;13.734;2022-09-13T00:33:26;13.20;99.90
44136;DHT22;29798;51.064;13.734;2022-09-13T00:35:51;13.20;99.90
44136;DHT22;29798;51.064;13.734;2022-09-13T00:38:17;13.20;99.90
44136;DHT22;29798;51.064;13.734;2022-09-13T00:40:43;13.20;99.90
44136;DHT22;29798;51.064;13.734;2022-09-13T00:43:11;13.20;99.90
44136;DHT22;29798;51.064;13.734;2022-09-13T00:45:41;13.20;99.90
44136;DHT22;29798;51.064;13.734;2022-09-13T00:48:07;13.30;99.90
44136;DHT22;29798;51.064;13.734;2022-09-13T00:50:55;13.10;99.90
44136;DHT22;29798;51.064;13.734;2022-09-13T00:55:56;13.10;99.90
44136;DHT22;29798;51.064;13.734;2022-09-13T01:00:59;13.20;99.90
44136;DHT22;29798;51.064;13.734;2022-09-13T01:03:27;13.20;99.90
44136;DHT22;29798;51.064;13.734;2022-09-13T01:05:59;13.20;99.90
44136;DHT22;29798;51.064;13.734;2022-09-13T01:08:28;13.30;99.90
44136;DHT22;29798;51.064;13.734;2022-09-13T01:10:55;13.20;99.90
44136;DHT22;29798;51.064;13.734;2022-09-13T01:13:25;13.20;99.90
44136;DHT22;29798;51.064;13.734;2022-09-13T01:15:53;13.10;99.90
44136;DHT22;29798;51.064;13.734;2022-09-13T01:18:19;13.20;99.90
44136;DHT22;29798;51.064;13.734;2022-09-13T01:26:55;13.20;99.90
44136;DHT22;29798;51.064;13.734;2022-09-13T01:46:04;13.00;99.90
44136;DHT22;29798;51.064;13.734;2022-09-13T01:51:20;13.10;99.90
44136;DHT22;29798;51.064;13.734;2022-09-13T01:53:50;13.10;99.90
44136;DHT22;29798;51.064;13.734;2022-09-13T01:59:06;13.10;99.90
44136;DHT22;29798;51.064;13.734;2022-09-13T02:01:38;13.00;99.90
44136;DHT22;29798;51.064;13.734;2022-09-13T02:04:09;13.00;99.90
44136;DHT22;29798;51.064;13.734;2022-09-13T02:06:45;13.00;99.90
44136;DHT22;29798;51.064;13.734;2022-09-13T02:09:15;13.00;99.90
44136;DHT22;29798;51.064;13.734;2022-09-13T02:11:45;13.00;99.90
44136;DHT22;29798;51.064;13.734;2022-09-13T02:14:23;13.00;99.90
44136;DHT22;29798;51.064;13.734;2022-09-13T02:17:00;13.00;99.90
44136;DHT22;29798;51.064;13.734;2022-09-13T02:22:01;12.90;99.90
44136;DHT22;29798;51.064;13.734;2022-09-13T02:24:32;12.90;99.90
44136;DHT22;29798;51.064;13.734;2022-09-13T02:27:01;12.80;99.90
44136;DHT22;29798;51.064;13.734;2022-09-13T02:29:29;12.80;99.90
44136;DHT22;29798;51.064;13.734;2022-09-13T02:34:30;12.60;99.90
44136;DHT22;29798;51.064;13.734;2022-09-13T02:36:59;12.50;99.90
44136;DHT22;29798;51.064;13.734;2022-09-13T02:39:26;12.50;99.90
44136;DHT22;29798;51.064;13.734;2022-09-13T02:44:41;12.40;99.90
44136;DHT22;29798;51.064;13.734;2022-09-13T02:49:57;12.40;99.90
44136;DHT22;29798;51.064;13.734;2022-09-13T02:52:50;12.40;99.90
44136;DHT22;29798;51.064;13.734;2022-09-13T03:01:22;12.40;99.90
44136;DHT22;29798;51.064;13.734;2022-09-13T03:03:50;12.40;99.90
44136;DHT22;29798;51.064;13.734;2022-09-13T03:06:24;12.40;99.90
44136;DHT22;29798;51.064;13.734;2022-09-13T03:08:51;12.40;99.90
44136;DHT22;29798;51.064;13.734;2022-09-13T03:11:29;12.50;99.90
44136;DHT22;29798;51.064;13.734;2022-09-13T03:22:26;12.60;99.90
44136;DHT22;29798;51.064;13.734;2022-09-13T03:25:05;12.70;99.90
44136;DHT22;29798;51.064;13.734;2022-09-13T03:30:42;12.80;99.90
44136;DHT22;29798;51.064;13.734;2022-09-13T03:35:57;13.00;99.90
44136;DHT22;29798;51.064;13.734;2022-09-13T03:38:46;13.00;99.90
44136;DHT22;29798;51.064;13.734;2022-09-13T03:41:25;13.00;99.90
44136;DHT22;29798;51.064;13.734;2022-09-13T03:43:55;13.00;99.90
44136;DHT22;29798;51.064;13.734;2022-09-13T03:46:30;12.90;99.90
44136;DHT22;29798;51.064;13.734;2022-09-13T03:48:59;12.90;99.90
44136;DHT22;29798;51.064;13.734;2022-09-13T03:51:31;12.90;99.90
44136;DHT22;29798;51.064;13.734;2022-09-13T03:53:58;12.90;99.90
44136;DHT22;29798;51.064;13.734;2022-09-13T03:56:26;12.90;99.90
44136;DHT22;29798;51.064;13.734;2022-09-13T03:58:52;12.80;99.90
44136;DHT22;29798;51.064;13.734;2022-09-13T04:01:19;12.80;99.90
44136;DHT22;29798;51.064;13.734;2022-09-13T04:03:46;12.80;99.90
44136;DHT22;29798;51.064;13.734;2022-09-13T04:06:12;12.70;99.90
44136;DHT22;29798;51.064;13.734;2022-09-13T04:08:37;12.70;99.90
44136;DHT22;29798;51.064;13.734;2022-09-13T04:11:03;12.70;99.90
44136;DHT22;29798;51.064;13.734;2022-09-13T04:13:29;12.70;99.90
44136;DHT22;29798;51.064;13.734;2022-09-13T04:15:59;12.60;99.90
44136;DHT22;29798;51.064;13.734;2022-09-13T04:18:27;12.70;99.90
44136;DHT22;29798;51.064;13.734;2022-09-13T04:20:53;12.60;99.90
44136;DHT22;29798;51.064;13.734;2022-09-13T04:23:20;12.50;99.90
44136;DHT22;29798;51.064;13.734;2022-09-13T04:25:46;12.50;99.90
44136;DHT22;29798;51.064;13.734;2022-09-13T04:28:12;12.40;99.90
44136;DHT22;29798;51.064;13.734;2022-09-13T04:30:38;12.40;99.90
44136;DHT22;29798;51.064;13.734;2022-09-13T04:33:03;12.40;99.90
44136;DHT22;29798;51.064;13.734;2022-09-13T04:35:29;12.40;99.90
44136;DHT22;29798;51.064;13.734;2022-09-13T04:37:55;12.40;99.90
44136;DHT22;29798;51.064;13.734;2022-09-13T04:40:23;12.40;99.90
44136;DHT22;29798;51.064;13.734;2022-09-13T04:42:49;12.40;99.90
44136;DHT22;29798;51.064;13.734;2022-09-13T04:45:15;12.40;99.90
44136;DHT22;29798;51.064;13.734;2022-09-13T04:47:41;12.40;99.90
44136;DHT22;29798;51.064;13.734;2022-09-13T04:50:07;12.50;99.90
44136;DHT22;29798;51.064;13.734;2022-09-13T04:52:34;12.50;99.90
44136;DHT22;29798;51.064;13.734;2022-09-13T04:55:00;12.60;99.90
44136;DHT22;29798;51.064;13.734;2022-09-13T04:57:26;12.60;99.90
44136;DHT22;29798;51.064;13.734;2022-09-13T04:59:53;12.70;99.90
44136;DHT22;29798;51.064;13.734;2022-09-13T05:02:19;12.70;99.90
44136;DHT22;29798;51.064;13.734;2022-09-13T05:04:44;12.70;99.90
44136;DHT22;29798;51.064;13.734;2022-09-13T05:07:10;12.80;99.90
44136;DHT22;29798;51.064;13.734;2022-09-13T05:09:36;12.90;99.90
44136;DHT22;29798;51.064;13.734;2022-09-13T05:12:02;13.00;99.90
44136;DHT22;29798;51.064;13.734;2022-09-13T05:14:27;13.10;99.90
44136;DHT22;29798;51.064;13.734;2022-09-13T05:16:53;13.20;99.90
44136;DHT22;29798;51.064;13.734;2022-09-13T05:19:19;13.30;99.90
44136;DHT22;29798;51.064;13.734;2022-09-13T05:21:44;13.30;99.90
44136;DHT22;29798;51.064;13.734;2022-09-13T05:24:10;13.40;99.90
44136;DHT22;29798;51.064;13.734;2022-09-13T05:26:36;13.40;99.90
44136;DHT22;29798;51.064;13.734;2022-09-13T05:29:02;13.50;99.90
44136;DHT22;29798;51.064;13.734;2022-09-13T05:33:56;13.70;99.90
44136;DHT22;29798;51.064;13.734;2022-09-13T05:36:23;13.70;99.90
44136;DHT22;29798;51.064;13.734;2022-09-13T05:38:51;13.80;99.90
44136;DHT22;29798;51.064;13.734;2022-09-13T05:41:17;13.80;99.90
44136;DHT22;29798;51.064;13.734;2022-09-13T05:43:43;13.90;99.90
44136;DHT22;29798;51.064;13.734;2022-09-13T05:46:10;14.00;99.90
44136;DHT22;29798;51.064;13.734;2022-09-13T05:48:36;14.10;99.90
44136;DHT22;29798;51.064;13.734;2022-09-13T05:51:07;14.20;99.90
44136;DHT22;29798;51.064;13.734;2022-09-13T05:53:33;14.20;99.90
44136;DHT22;29798;51.064;13.734;2022-09-13T05:56:00;14.40;99.90
44136;DHT22;29798;51.064;13.734;2022-09-13T05:58:26;14.30;99.90
44136;DHT22;29798;51.064;13.734;2022-09-13T06:00:52;14.40;99.90
44136;DHT22;29798;51.064;13.734;2022-09-13T06:03:20;14.40;99.90
44136;DHT22;29798;51.064;13.734;2022-09-13T06:05:46;14.40;99.90
44136;DHT22;29798;51.064;13.734;2022-09-13T06:08:12;14.40;99.90
44136;DHT22;29798;51.064;13.734;2022-09-13T06:10:37;14.50;99.90
44136;DHT22;29798;51.064;13.734;2022-09-13T06:13:03;14.70;99.90
44136;DHT22;29798;51.064;13.734;2022-09-13T06:15:29;14.90;99.90
44136;DHT22;29798;51.064;13.734;2022-09-13T06:17:55;15.10;99.90
44136;DHT22;29798;51.064;13.734;2022-09-13T06:20:20;15.20;99.90
44136;DHT22;29798;51.064;13.734;2022-09-13T06:22:47;15.50;99.90
44136;DHT22;29798;51.064;13.734;2022-09-13T06:25:13;15.70;99.90
44136;DHT22;29798;51.064;13.734;2022-09-13T06:27:39;16.00;99.90
44136;DHT22;29798;51.064;13.734;2022-09-13T06:30:05;16.30;99.90
44136;DHT22;29798;51.064;13.734;2022-09-13T06:32:36;16.30;99.90
44136;DHT22;29798;51.064;13.734;2022-09-13T06:35:01;16.40;99.90
44136;DHT22;29798;51.064;13.734;2022-09-13T06:37:27;16.40;99.90
44136;DHT22;29798;51.064;13.734;2022-09-13T06:39:53;18.40;99.90
44136;DHT22;29798;51.064;13.734;2022-09-13T06:42:19;16.40;99.90
44136;DHT22;29798;51.064;13.734;2022-09-13T06:44:44;16.60;99.90
44136;DHT22;29798;51.064;13.734;2022-09-13T06:47:10;16.90;99.90
44136;DHT22;29798;51.064;13.734;2022-09-13T06:49:37;17.20;99.90
44136;DHT22;29798;51.064;13.734;2022-09-13T06:52:03;17.30;99.90
44136;DHT22;29798;51.064;13.734;2022-09-13T06:54:29;17.50;99.90
44136;DHT22;29798;51.064;13.734;2022-09-13T06:56:55;17.80;99.90
44136;DHT22;29798;51.064;13.734;2022-09-13T06:59:21;18.00;99.90
44136;DHT22;29798;51.064;13.734;2022-09-13T07:01:47;18.20;99.90
44136;DHT22;29798;51.064;13.734;2022-09-13T07:04:16;18.30;99.90
44136;DHT22;29798;51.064;13.734;2022-09-13T07:06:44;18.50;99.90
44136;DHT22;29798;51.064;13.734;2022-09-13T07:09:16;18.60;99.90
44136;DHT22;29798;51.064;13.734;2022-09-13T07:11:43;18.70;99.90
44136;DHT22;29798;51.064;13.734;2022-09-13T07:14:27;18.80;99.90
44136;DHT22;29798;51.064;13.734;2022-09-13T07:16:54;18.90;99.90
44136;DHT22;29798;51.064;13.734;2022-09-13T07:19:24;19.00;99.90
44136;DHT22;29798;51.064;13.734;2022-09-13T07:21:54;19.20;99.90
44136;DHT22;29798;51.064;13.734;2022-09-13T07:24:20;19.30;99.90
44136;DHT22;29798;51.064;13.734;2022-09-13T07:26:47;19.50;99.90
44136;DHT22;29798;51.064;13.734;2022-09-13T07:29:14;19.60;99.90
44136;DHT22;29798;51.064;13.734;2022-09-13T07:31:47;19.80;99.90
44136;DHT22;29798;51.064;13.734;2022-09-13T07:34:16;19.90;99.90
44136;DHT22;29798;51.064;13.734;2022-09-13T07:36:42;20.10;99.90
44136;DHT22;29798;51.064;13.734;2022-09-13T07:39:09;20.30;99.90
44136;DHT22;29798;51.064;13.734;2022-09-13T07:41:35;20.30;99.90
44136;DHT22;29798;51.064;13.734;2022-09-13T07:44:01;20.20;99.90
44136;DHT22;29798;51.064;13.734;2022-09-13T07:46:29;20.10;99.90
44136;DHT22;29798;51.064;13.734;2022-09-13T07:49:00;19.90;99.90
44136;DHT22;29798;51.064;13.734;2022-09-13T07:51:30;19.70;99.90
44136;DHT22;29798;51.064;13.734;2022-09-13T07:53:58;19.40;99.90
44136;DHT22;29798;51.064;13.734;2022-09-13T07:56:25;19.30;99.90
44136;DHT22;29798;51.064;13.734;2022-09-13T07:58:53;19.10;99.90
44136;DHT22;29798;51.064;13.734;2022-09-13T08:01:23;18.90;99.90
44136;DHT22;29798;51.064;13.734;2022-09-13T08:03:51;18.80;99.90
44136;DHT22;29798;51.064;13.734;2022-09-13T08:06:18;18.60;99.90
44136;DHT22;29798;51.064;13.734;2022-09-13T08:08:44;18.40;99.90
44136;DHT22;29798;51.064;13.734;2022-09-13T08:11:13;18.20;99.90
44136;DHT22;29798;51.064;13.734;2022-09-13T08:13:44;18.00;99.90
44136;DHT22;29798;51.064;13.734;2022-09-13T08:16:13;17.80;99.90
44136;DHT22;29798;51.064;13.734;2022-09-13T08:18:42;17.70;99.90
44136;DHT22;29798;51.064;13.734;2022-09-13T08:21:09;17.70;99.90
44136;DHT22;29798;51.064;13.734;2022-09-13T08:23:35;17.70;99.90
44136;DHT22;29798;51.064;13.734;2022-09-13T08:26:01;17.80;99.90
44136;DHT22;29798;51.064;13.734;2022-09-13T08:28:28;18.00;99.90
44136;DHT22;29798;51.064;13.734;2022-09-13T08:30:53;18.40;99.90
44136;DHT22;29798;51.064;13.734;2022-09-13T08:33:19;18.70;99.90
44136;DHT22;29798;51.064;13.734;2022-09-13T08:35:48;19.10;99.90
44136;DHT22;29798;51.064;13.734;2022-09-13T08:38:16;19.40;99.90
44136;DHT22;29798;51.064;13.734;2022-09-13T08:40:42;19.50;99.90
44136;DHT22;29798;51.064;13.734;2022-09-13T08:43:20;19.50;99.90
44136;DHT22;29798;51.064;13.734;2022-09-13T08:45:57;19.50;99.90
44136;DHT22;29798;51.064;13.734;2022-09-13T08:48:30;19.40;99.90
44136;DHT22;29798;51.064;13.734;2022-09-13T08:50:59;19.50;99.90
44136;DHT22;29798;51.064;13.734;2022-09-13T08:53:29;19.60;99.90
44136;DHT22;29798;51.064;13.734;2022-09-13T08:58:36;19.80;99.90
44136;DHT22;29798;51.064;13.734;2022-09-13T09:04:39;19.90;99.90
44136;DHT22;29798;51.064;13.734;2022-09-13T09:09:56;20.10;99.90
44136;DHT22;29798;51.064;13.734;2022-09-13T09:12:31;20.00;99.90
44136;DHT22;29798;51.064;13.734;2022-09-13T09:15:22;20.00;99.90
44136;DHT22;29798;51.064;13.734;2022-09-13T09:23:00;20.40;99.90
44136;DHT22;29798;51.064;13.734;2022-09-13T09:25:29;20.60;99.90
44136;DHT22;29798;51.064;13.734;2022-09-13T09:27:56;20.60;99.90
44136;DHT22;29798;51.064;13.734;2022-09-13T09:30:22;20.70;99.90
44136;DHT22;29798;51.064;13.734;2022-09-13T09:33:00;20.90;99.90
44136;DHT22;29798;51.064;13.734;2022-09-13T09:35:44;20.90;99.90
44136;DHT22;29798;51.064;13.734;2022-09-13T09:41:25;21.50;99.90
44136;DHT22;29798;51.064;13.734;2022-09-13T09:46:34;21.90;99.90
44136;DHT22;29798;51.064;13.734;2022-09-13T09:49:19;22.00;99.90
44136;DHT22;29798;51.064;13.734;2022-09-13T09:52:06;22.20;99.90
44136;DHT22;29798;51.064;13.734;2022-09-13T09:54:34;22.60;99.90
44136;DHT22;29798;51.064;13.734;2022-09-13T09:57:02;23.10;99.90
44136;DHT22;29798;51.064;13.734;2022-09-13T09:59:30;23.90;99.90
44136;DHT22;29798;51.064;13.734;2022-09-13T10:01:59;24.60;99.90
44136;DHT22;29798;51.064;13.734;2022-09-13T10:04:26;25.40;99.90
44136;DHT22;29798;51.064;13.734;2022-09-13T10:07:11;26.60;99.90
44136;DHT22;29798;51.064;13.734;2022-09-13T10:12:34;28.30;99.90
44136;DHT22;29798;51.064;13.734;2022-09-13T10:15:18;28.40;99.90
44136;DHT22;29798;51.064;13.734;2022-09-13T10:18:05;28.20;99.90
44136;DHT22;29798;51.064;13.734;2022-09-13T10:20:39;27.90;99.90
44136;DHT22;29798;51.064;13.734;2022-09-13T10:25:35;28.70;99.90
44136;DHT22;29798;51.064;13.734;2022-09-13T10:28:01;28.70;99.90
44136;DHT22;29798;51.064;13.734;2022-09-13T10:30:31;28.60;99.90
44136;DHT22;29798;51.064;13.734;2022-09-13T10:32:58;28.50;99.90
44136;DHT22;29798;51.064;13.734;2022-09-13T10:35:24;28.20;99.90
44136;DHT22;29798;51.064;13.734;2022-09-13T10:37:50;29.70;99.90
44136;DHT22;29798;51.064;13.734;2022-09-13T10:40:18;27.70;99.90
44136;DHT22;29798;51.064;13.734;2022-09-13T10:42:51;27.50;99.90
44136;DHT22;29798;51.064;13.734;2022-09-13T10:45:23;27.40;99.90
44136;DHT22;29798;51.064;13.734;2022-09-13T10:47:50;27.30;99.90
44136;DHT22;29798;51.064;13.734;2022-09-13T10:50:26;27.60;99.90
44136;DHT22;29798;51.064;13.734;2022-09-13T11:00:45;30.70;99.90
44136;DHT22;29798;51.064;13.734;2022-09-13T11:09:15;31.90;96.60
44136;DHT22;29798;51.064;13.734;2022-09-13T11:17:17;31.00;97.40
44136;DHT22;29798;51.064;13.734;2022-09-13T11:19:51;30.70;97.90
44136;DHT22;29798;51.064;13.734;2022-09-13T11:22:35;31.10;97.20
44136;DHT22;29798;51.064;13.734;2022-09-13T11:33:53;31.40;95.10
44136;DHT22;29798;51.064;13.734;2022-09-13T11:36:43;31.40;94.20
44136;DHT22;29798;51.064;13.734;2022-09-13T11:42:01;31.30;95.00
44136;DHT22;29798;51.064;13.734;2022-09-13T11:44:47;31.90;95.00
44136;DHT22;29798;51.064;13.734;2022-09-13T11:50:05;32.70;93.00
44136;DHT22;29798;51.064;13.734;2022-09-13T11:57:49;32.70;92.80
44136;DHT22;29798;51.064;13.734;2022-09-13T12:02:58;32.80;92.20
44136;DHT22;29798;51.064;13.734;2022-09-13T12:05:28;31.70;92.30
44136;DHT22;29798;51.064;13.734;2022-09-13T12:10:45;30.20;95.20
44136;DHT22;29798;51.064;13.734;2022-09-13T12:13:17;30.30;94.80
44136;DHT22;29798;51.064;13.734;2022-09-13T12:15:47;30.50;94.10
44136;DHT22;29798;51.064;13.734;2022-09-13T12:18:24;30.10;93.90
44136;DHT22;29798;51.064;13.734;2022-09-13T12:20:54;29.20;95.70
44136;DHT22;29798;51.064;13.734;2022-09-13T12:23:23;29.30;95.90
44136;DHT22;29798;51.064;13.734;2022-09-13T12:28:26;30.80;95.20
44136;DHT22;29798;51.064;13.734;2022-09-13T12:30:55;31.10;93.30
44136;DHT22;29798;51.064;13.734;2022-09-13T12:33:23;31.00;92.90
44136;DHT22;29798;51.064;13.734;2022-09-13T12:35:58;30.50;92.30
44136;DHT22;29798;51.064;13.734;2022-09-13T12:50:07;28.70;95.90
44136;DHT22;29798;51.064;13.734;2022-09-13T12:52:41;28.60;96.50
44136;DHT22;29798;51.064;13.734;2022-09-13T12:55:26;28.20;96.90
44136;DHT22;29798;51.064;13.734;2022-09-13T13:00:58;27.20;97.50
44136;DHT22;29798;51.064;13.734;2022-09-13T13:03:28;26.80;97.60
44136;DHT22;29798;51.064;13.734;2022-09-13T13:06:07;26.70;97.50
44136;DHT22;29798;51.064;13.734;2022-09-13T13:08:35;26.50;98.20
44136;DHT22;29798;51.064;13.734;2022-09-13T13:13:32;26.50;98.20
44136;DHT22;29798;51.064;13.734;2022-09-13T13:18:46;26.50;98.40
44136;DHT22;29798;51.064;13.734;2022-09-13T13:36:48;28.20;97.80
44136;DHT22;29798;51.064;13.734;2022-09-13T13:54:56;26.40;98.20
44136;DHT22;29798;51.064;13.734;2022-09-13T13:57:27;27.60;99.90
44136;DHT22;29798;51.064;13.734;2022-09-13T14:00:04;26.10;99.70
44136;DHT22;29798;51.064;13.734;2022-09-13T14:07:57;25.80;99.90
44136;DHT22;29798;51.064;13.734;2022-09-13T14:10:52;25.90;99.90
44136;DHT22;29798;51.064;13.734;2022-09-13T14:16:19;26.00;99.90
44136;DHT22;29798;51.064;13.734;2022-09-13T14:21:39;25.90;99.90
44136;DHT22;29798;51.064;13.734;2022-09-13T14:24:21;26.00;99.90
44136;DHT22;29798;51.064;13.734;2022-09-13T14:26:50;26.20;99.90
44136;DHT22;29798;51.064;13.734;2022-09-13T14:29:18;26.20;99.90
44136;DHT22;29798;51.064;13.734;2022-09-13T14:31:49;26.10;99.90
44136;DHT22;29798;51.064;13.734;2022-09-13T14:34:19;25.80;99.90
44136;DHT22;29798;51.064;13.734;2022-09-13T14:36:53;25.60;99.90
44136;DHT22;29798;51.064;13.734;2022-09-13T14:39:20;25.30;99.90
44136;DHT22;29798;51.064;13.734;2022-09-13T14:41:46;25.20;99.90
44136;DHT22;29798;51.064;13.734;2022-09-13T14:44:13;25.10;99.90
44136;DHT22;29798;51.064;13.734;2022-09-13T14:46:41;25.20;99.90
44136;DHT22;29798;51.064;13.734;2022-09-13T14:49:09;25.20;99.90
44136;DHT22;29798;51.064;13.734;2022-09-13T14:54:43;25.10;99.90
44136;DHT22;29798;51.064;13.734;2022-09-13T14:57:24;25.00;99.90
44136;DHT22;29798;51.064;13.734;2022-09-13T14:59:55;24.80;99.90
44136;DHT22;29798;51.064;13.734;2022-09-13T15:02:28;24.60;99.90
44136;DHT22;29798;51.064;13.734;2022-09-13T15:04:56;24.50;99.90
44136;DHT22;29798;51.064;13.734;2022-09-13T15:07:27;24.30;99.90
44136;DHT22;29798;51.064;13.734;2022-09-13T15:09:56;24.30;99.90
44136;DHT22;29798;51.064;13.734;2022-09-13T15:12:31;24.30;99.90
44136;DHT22;29798;51.064;13.734;2022-09-13T15:15:14;24.30;99.90
44136;DHT22;29798;51.064;13.734;2022-09-13T15:20:18;24.20;99.90
44136;DHT22;29798;51.064;13.734;2022-09-13T15:22:46;24.20;99.90
44136;DHT22;29798;51.064;13.734;2022-09-13T15:25:20;24.30;99.90
44136;DHT22;29798;51.064;13.734;2022-09-13T15:27:50;24.30;99.90
44136;DHT22;29798;51.064;13.734;2022-09-13T15:30:24;24.40;99.90
44136;DHT22;29798;51.064;13.734;2022-09-13T15:35:50;24.30;99.90
44136;DHT22;29798;51.064;13.734;2022-09-13T15:38:30;24.30;99.90
44136;DHT22;29798;51.064;13.734;2022-09-13T15:41:00;24.20;99.90
44136;DHT22;29798;51.064;13.734;2022-09-13T15:43:36;24.10;99.90
44136;DHT22;29798;51.064;13.734;2022-09-13T15:46:01;24.00;99.90
44136;DHT22;29798;51.064;13.734;2022-09-13T15:48:29;23.90;99.90
44136;DHT22;29798;51.064;13.734;2022-09-13T15:51:09;23.90;99.90
44136;DHT22;29798;51.064;13.734;2022-09-13T15:53:37;22.40;99.90
44136;DHT22;29798;51.064;13.734;2022-09-13T15:56:04;23.90;99.90
44136;DHT22;29798;51.064;13.734;2022-09-13T15:58:31;23.90;99.90
44136;DHT22;29798;51.064;13.734;2022-09-13T16:00:57;24.00;99.90
44136;DHT22;29798;51.064;13.734;2022-09-13T16:03:23;24.00;99.90
44136;DHT22;29798;51.064;13.734;2022-09-13T16:05:49;23.90;99.90
44136;DHT22;29798;51.064;13.734;2022-09-13T16:08:14;26.40;99.90
44136;DHT22;29798;51.064;13.734;2022-09-13T16:10:40;23.90;99.90
44136;DHT22;29798;51.064;13.734;2022-09-13T16:13:07;23.90;99.90
44136;DHT22;29798;51.064;13.734;2022-09-13T16:15:33;23.90;99.90
44136;DHT22;29798;51.064;13.734;2022-09-13T16:18:00;23.80;99.90
44136;DHT22;29798;51.064;13.734;2022-09-13T16:20:26;23.70;99.90
44136;DHT22;29798;51.064;13.734;2022-09-13T16:22:52;23.70;99.90
44136;DHT22;29798;51.064;13.734;2022-09-13T16:25:18;23.60;99.90
44136;DHT22;29798;51.064;13.734;2022-09-13T16:27:44;23.60;99.90
44136;DHT22;29798;51.064;13.734;2022-09-13T16:30:11;23.50;99.90
44136;DHT22;29798;51.064;13.734;2022-09-13T16:32:38;23.50;99.90
44136;DHT22;29798;51.064;13.734;2022-09-13T16:35:05;24.40;99.90
44136;DHT22;29798;51.064;13.734;2022-09-13T16:37:32;23.40;99.90
44136;DHT22;29798;51.064;13.734;2022-09-13T16:39:57;23.40;99.90
44136;DHT22;29798;51.064;13.734;2022-09-13T16:42:23;23.30;99.90
44136;DHT22;29798;51.064;13.734;2022-09-13T16:44:49;23.20;99.90
44136;DHT22;29798;51.064;13.734;2022-09-13T16:47:15;23.10;99.90
44136;DHT22;29798;51.064;13.734;2022-09-13T16:49:41;23.10;99.90
44136;DHT22;29798;51.064;13.734;2022-09-13T16:52:06;23.00;99.90
44136;DHT22;29798;51.064;13.734;2022-09-13T16:54:34;23.00;99.90
44136;DHT22;29798;51.064;13.734;2022-09-13T16:57:01;22.90;99.90
44136;DHT22;29798;51.064;13.734;2022-09-13T16:59:28;22.90;99.90
44136;DHT22;29798;51.064;13.734;2022-09-13T17:01:55;22.80;99.90
44136;DHT22;29798;51.064;13.734;2022-09-13T17:04:22;22.70;99.90
44136;DHT22;29798;51.064;13.734;2022-09-13T17:06:48;22.60;99.90
44136;DHT22;29798;51.064;13.734;2022-09-13T17:09:14;22.60;99.90
44136;DHT22;29798;51.064;13.734;2022-09-13T17:11:41;22.60;99.90
44136;DHT22;29798;51.064;13.734;2022-09-13T17:14:09;22.50;99.90
44136;DHT22;29798;51.064;13.734;2022-09-13T17:16:37;22.40;99.90
44136;DHT22;29798;51.064;13.734;2022-09-13T17:19:13;22.40;99.90
44136;DHT22;29798;51.064;13.734;2022-09-13T17:21:42;22.40;99.90
44136;DHT22;29798;51.064;13.734;2022-09-13T17:24:08;22.30;99.90
44136;DHT22;29798;51.064;13.734;2022-09-13T17:26:34;22.20;99.90
44136;DHT22;29798;51.064;13.734;2022-09-13T17:28:59;22.20;99.90
44136;DHT22;29798;51.064;13.734;2022-09-13T17:31:26;22.20;99.90
44136;DHT22;29798;51.064;13.734;2022-09-13T17:33:51;22.10;99.90
44136;DHT22;29798;51.064;13.734;2022-09-13T17:36:18;22.00;99.90
44136;DHT22;29798;51.064;13.734;2022-09-13T17:38:44;22.00;99.90
44136;DHT22;29798;51.064;13.734;2022-09-13T17:41:11;21.90;99.90
44136;DHT22;29798;51.064;13.734;2022-09-13T17:43:39;22.00;99.90
44136;DHT22;29798;51.064;13.734;2022-09-13T17:46:07;22.00;99.90
44136;DHT22;29798;51.064;13.734;2022-09-13T17:48:34;21.90;99.90
44136;DHT22;29798;51.064;13.734;2022-09-13T17:51:01;20.80;99.90
44136;DHT22;29798;51.064;13.734;2022-09-13T17:53:35;21.70;99.90
44136;DHT22;29798;51.064;13.734;2022-09-13T17:56:02;21.70;99.90
44136;DHT22;29798;51.064;13.734;2022-09-13T17:58:28;21.60;99.90
44136;DHT22;29798;51.064;13.734;2022-09-13T18:01:03;21.50;99.90
44136;DHT22;29798;51.064;13.734;2022-09-13T18:03:30;21.30;99.90
44136;DHT22;29798;51.064;13.734;2022-09-13T18:05:57;21.20;99.90
44136;DHT22;29798;51.064;13.734;2022-09-13T18:08:24;21.00;99.90
44136;DHT22;29798;51.064;13.734;2022-09-13T18:10:51;20.90;99.90
44136;DHT22;29798;51.064;13.734;2022-09-13T18:13:17;20.80;99.90
44136;DHT22;29798;51.064;13.734;2022-09-13T18:15:43;20.80;99.90
44136;DHT22;29798;51.064;13.734;2022-09-13T18:18:11;20.60;99.90
44136;DHT22;29798;51.064;13.734;2022-09-13T18:20:37;20.60;99.90
44136;DHT22;29798;51.064;13.734;2022-09-13T18:23:03;20.40;99.90
44136;DHT22;29798;51.064;13.734;2022-09-13T18:25:29;20.30;99.90
44136;DHT22;29798;51.064;13.734;2022-09-13T18:27:55;20.40;99.90
44136;DHT22;29798;51.064;13.734;2022-09-13T18:30:21;20.40;99.90
44136;DHT22;29798;51.064;13.734;2022-09-13T18:32:47;20.50;99.90
44136;DHT22;29798;51.064;13.734;2022-09-13T18:35:12;20.60;99.90
44136;DHT22;29798;51.064;13.734;2022-09-13T18:37:38;20.60;99.90
44136;DHT22;29798;51.064;13.734;2022-09-13T18:40:04;20.60;99.90
44136;DHT22;29798;51.064;13.734;2022-09-13T18:42:32;20.50;99.90
44136;DHT22;29798;51.064;13.734;2022-09-13T18:44:57;20.40;99.90
44136;DHT22;29798;51.064;13.734;2022-09-13T18:47:23;20.20;99.90
44136;DHT22;29798;51.064;13.734;2022-09-13T18:49:49;20.20;99.90
44136;DHT22;29798;51.064;13.734;2022-09-13T18:52:15;20.20;99.90
44136;DHT22;29798;51.064;13.734;2022-09-13T18:54:41;20.10;99.90
44136;DHT22;29798;51.064;13.734;2022-09-13T18:57:06;20.20;99.90